sensor_id;sensor_type;location;lat;lon;timestamp;P1;durP1;ratioP1;P2;durP2;ratioP2
35757;SDS011;21879;50.110;18.900;2022-08-07T00:04:14;11.00;;;8.40;;
35757;SDS011;21879;50.110;18.900;2022-08-07T00:14:49;8.80;;;7.00;;
35757;SDS011;21879;50.110;18.900;2022-08-07T00:25:18;6.00;;;5.30;;
35757;SDS011;21879;50.110;18.900;2022-08-07T00:35:51;9.20;;;6.60;;
35757;SDS011;21879;50.110;18.900;2022-08-07T00:46:20;7.10;;;4.10;;
35757;SDS011;21879;50.110;18.900;2022-08-07T00:56:50;8.90;;;5.50;;
35757;SDS011;21879;50.110;18.900;2022-08-07T01:07:20;7.10;;;5.30;;
35757;SDS011;21879;50.110;18.900;2022-08-07T01:17:52;8.40;;;7.10;;
35757;SDS011;21879;50.110;18.900;2022-08-07T01:28:21;7.60;;;5.80;;
35757;SDS011;21879;50.110;18.900;2022-08-07T01:38:53;7.20;;;6.00;;
35757;SDS011;21879;50.110;18.900;2022-08-07T01:49:23;9.40;;;6.50;;
35757;SDS011;21879;50.110;18.900;2022-08-07T01:59:56;6.60;;;5.50;;
35757;SDS011;21879;50.110;18.900;2022-08-07T02:10:38;7.70;;;6.10;;
35757;SDS011;21879;50.110;18.900;2022-08-07T02:21:17;8.20;;;6.30;;
35757;SDS011;21879;50.110;18.900;2022-08-07T02:31:49;6.90;;;5.90;;
35757;SDS011;21879;50.110;18.900;2022-08-07T02:42:19;8.50;;;7.20;;
35757;SDS011;21879;50.110;18.900;2022-08-07T02:52:51;7.70;;;6.70;;
35757;SDS011;21879;50.110;18.900;2022-08-07T03:03:31;10.70;;;8.50;;
35757;SDS011;21879;50.110;18.900;2022-08-07T03:14:14;9.20;;;8.30;;
35757;SDS011;21879;50.110;18.900;2022-08-07T03:24:47;13.90;;;10.50;;
35757;SDS011;21879;50.110;18.900;2022-08-07T03:35:17;11.20;;;9.90;;
35757;SDS011;21879;50.110;18.900;2022-08-07T03:45:50;8.00;;;6.00;;
35757;SDS011;21879;50.110;18.900;2022-08-07T03:56:20;11.00;;;6.30;;
35757;SDS011;21879;50.110;18.900;2022-08-07T04:06:58;7.50;;;6.00;;
35757;SDS011;21879;50.110;18.900;2022-08-07T04:17:42;7.90;;;7.00;;
35757;SDS011;21879;50.110;18.900;2022-08-07T04:28:32;9.40;;;8.00;;
35757;SDS011;21879;50.110;18.900;2022-08-07T04:39:02;10.30;;;9.00;;
35757;SDS011;21879;50.110;18.900;2022-08-07T04:49:37;13.80;;;11.20;;
35757;SDS011;21879;50.110;18.900;2022-08-07T05:00:31;11.40;;;9.40;;
35757;SDS011;21879;50.110;18.900;2022-08-07T05:11:12;11.40;;;9.70;;
35757;SDS011;21879;50.110;18.900;2022-08-07T05:21:51;11.00;;;8.90;;
35757;SDS011;21879;50.110;18.900;2022-08-07T05:32:25;11.00;;;9.50;;
35757;SDS011;21879;50.110;18.900;2022-08-07T05:42:56;11.00;;;9.60;;
35757;SDS011;21879;50.110;18.900;2022-08-07T05:53:27;13.30;;;11.90;;
35757;SDS011;21879;50.110;18.900;2022-08-07T06:04:17;12.90;;;10.30;;
35757;SDS011;21879;50.110;18.900;2022-08-07T06:14:54;10.30;;;7.70;;
35757;SDS011;21879;50.110;18.900;2022-08-07T06:25:30;7.90;;;6.10;;
35757;SDS011;21879;50.110;18.900;2022-08-07T06:36:00;6.10;;;4.80;;
35757;SDS011;21879;50.110;18.900;2022-08-07T06:46:38;5.90;;;4.80;;
35757;SDS011;21879;50.110;18.900;2022-08-07T06:57:18;6.00;;;4.20;;
35757;SDS011;21879;50.110;18.900;2022-08-07T07:08:08;5.90;;;4.30;;
35757;SDS011;21879;50.110;18.900;2022-08-07T07:18:49;4.30;;;3.90;;
35757;SDS011;21879;50.110;18.900;2022-08-07T07:29:22;6.70;;;4.50;;
35757;SDS011;21879;50.110;18.900;2022-08-07T07:40:15;5.20;;;3.20;;
35757;SDS011;21879;50.110;18.900;2022-08-07T07:50:51;6.40;;;2.90;;
35757;SDS011;21879;50.110;18.900;2022-08-07T08:01:22;3.90;;;3.50;;
35757;SDS011;21879;50.110;18.900;2022-08-07T08:12:14;3.80;;;3.30;;
35757;SDS011;21879;50.110;18.900;2022-08-07T08:23:04;3.60;;;2.60;;
35757;SDS011;21879;50.110;18.900;2022-08-07T08:33:58;3.30;;;2.70;;
35757;SDS011;21879;50.110;18.900;2022-08-07T08:44:34;5.60;;;4.00;;
35757;SDS011;21879;50.110;18.900;2022-08-07T08:55:12;4.60;;;4.20;;
35757;SDS011;21879;50.110;18.900;2022-08-07T09:06:07;5.30;;;4.60;;
35757;SDS011;21879;50.110;18.900;2022-08-07T09:16:51;6.10;;;4.50;;
35757;SDS011;21879;50.110;18.900;2022-08-07T09:27:29;8.00;;;5.20;;
35757;SDS011;21879;50.110;18.900;2022-08-07T09:38:28;4.90;;;3.80;;
35757;SDS011;21879;50.110;18.900;2022-08-07T09:49:11;3.80;;;3.00;;
35757;SDS011;21879;50.110;18.900;2022-08-07T10:00:13;5.30;;;3.20;;
35757;SDS011;21879;50.110;18.900;2022-08-07T10:10:57;4.90;;;4.10;;
35757;SDS011;21879;50.110;18.900;2022-08-07T10:21:55;5.20;;;4.70;;
35757;SDS011;21879;50.110;18.900;2022-08-07T10:32:52;6.70;;;4.90;;
35757;SDS011;21879;50.110;18.900;2022-08-07T10:43:41;5.90;;;4.50;;
35757;SDS011;21879;50.110;18.900;2022-08-07T10:54:34;3.40;;;2.90;;
35757;SDS011;21879;50.110;18.900;2022-08-07T11:05:29;3.90;;;2.30;;
35757;SDS011;21879;50.110;18.900;2022-08-07T11:16:16;3.60;;;2.10;;
35757;SDS011;21879;50.110;18.900;2022-08-07T11:26:56;2.10;;;1.90;;
35757;SDS011;21879;50.110;18.900;2022-08-07T11:37:49;3.20;;;2.10;;
35757;SDS011;21879;50.110;18.900;2022-08-07T11:48:52;2.70;;;2.40;;
35757;SDS011;21879;50.110;18.900;2022-08-07T12:00:00;3.80;;;2.90;;
35757;SDS011;21879;50.110;18.900;2022-08-07T12:10:46;2.90;;;2.30;;
35757;SDS011;21879;50.110;18.900;2022-08-07T12:21:41;3.70;;;2.60;;
35757;SDS011;21879;50.110;18.900;2022-08-07T12:32:37;3.50;;;2.20;;
35757;SDS011;21879;50.110;18.900;2022-08-07T12:43:15;2.80;;;2.30;;
35757;SDS011;21879;50.110;18.900;2022-08-07T12:54:16;5.00;;;2.20;;
35757;SDS011;21879;50.110;18.900;2022-08-07T13:05:04;2.70;;;1.60;;
35757;SDS011;21879;50.110;18.900;2022-08-07T13:16:08;3.80;;;2.00;;
35757;SDS011;21879;50.110;18.900;2022-08-07T13:26:48;2.30;;;1.90;;
35757;SDS011;21879;50.110;18.900;2022-08-07T13:37:23;3.80;;;2.00;;
35757;SDS011;21879;50.110;18.900;2022-08-07T13:47:55;3.90;;;2.30;;
35757;SDS011;21879;50.110;18.900;2022-08-07T13:58:35;2.50;;;1.60;;
35757;SDS011;21879;50.110;18.900;2022-08-07T14:09:25;2.30;;;1.90;;
35757;SDS011;21879;50.110;18.900;2022-08-07T14:20:18;3.00;;;1.60;;
35757;SDS011;21879;50.110;18.900;2022-08-07T14:31:08;1.90;;;1.60;;
35757;SDS011;21879;50.110;18.900;2022-08-07T14:41:41;3.10;;;2.30;;
35757;SDS011;21879;50.110;18.900;2022-08-07T14:52:35;4.10;;;1.70;;
35757;SDS011;21879;50.110;18.900;2022-08-07T15:03:07;2.90;;;1.60;;
35757;SDS011;21879;50.110;18.900;2022-08-07T15:13:47;2.60;;;2.30;;
35757;SDS011;21879;50.110;18.900;2022-08-07T15:24:20;2.30;;;2.00;;
35757;SDS011;21879;50.110;18.900;2022-08-07T15:35:14;1.50;;;1.40;;
35757;SDS011;21879;50.110;18.900;2022-08-07T15:46:14;2.10;;;1.80;;
35757;SDS011;21879;50.110;18.900;2022-08-07T15:57:03;2.10;;;1.90;;
35757;SDS011;21879;50.110;18.900;2022-08-07T16:07:55;2.30;;;1.70;;
35757;SDS011;21879;50.110;18.900;2022-08-07T16:18:53;4.60;;;3.00;;
35757;SDS011;21879;50.110;18.900;2022-08-07T16:52:09;2.50;;;1.60;;
35757;SDS011;21879;50.110;18.900;2022-08-07T17:03:18;3.00;;;2.10;;
35757;SDS011;21879;50.110;18.900;2022-08-07T17:14:14;2.50;;;2.00;;
35757;SDS011;21879;50.110;18.900;2022-08-07T17:24:52;3.50;;;2.30;;
35757;SDS011;21879;50.110;18.900;2022-08-07T17:35:37;2.50;;;2.10;;
35757;SDS011;21879;50.110;18.900;2022-08-07T17:46:20;1.80;;;1.40;;
35757;SDS011;21879;50.110;18.900;2022-08-07T17:57:01;4.50;;;1.90;;
35757;SDS011;21879;50.110;18.900;2022-08-07T18:07:44;3.40;;;1.70;;
35757;SDS011;21879;50.110;18.900;2022-08-07T18:18:21;2.30;;;2.00;;
35757;SDS011;21879;50.110;18.900;2022-08-07T18:29:22;2.20;;;1.80;;
35757;SDS011;21879;50.110;18.900;2022-08-07T18:40:22;2.40;;;2.10;;
35757;SDS011;21879;50.110;18.900;2022-08-07T18:51:18;3.30;;;2.40;;
35757;SDS011;21879;50.110;18.900;2022-08-07T19:02:18;4.10;;;2.20;;
35757;SDS011;21879;50.110;18.900;2022-08-07T19:13:05;3.30;;;2.40;;
35757;SDS011;21879;50.110;18.900;2022-08-07T19:23:47;5.50;;;2.90;;
35757;SDS011;21879;50.110;18.900;2022-08-07T19:34:25;3.80;;;2.40;;
35757;SDS011;21879;50.110;18.900;2022-08-07T19:45:03;3.40;;;2.60;;
35757;SDS011;21879;50.110;18.900;2022-08-07T19:55:58;3.40;;;2.50;;
35757;SDS011;21879;50.110;18.900;2022-08-07T20:06:39;3.20;;;2.40;;
35757;SDS011;21879;50.110;18.900;2022-08-07T20:17:12;5.10;;;3.20;;
35757;SDS011;21879;50.110;18.900;2022-08-07T20:27:47;4.70;;;2.50;;
35757;SDS011;21879;50.110;18.900;2022-08-07T20:38:27;4.60;;;3.00;;
35757;SDS011;21879;50.110;18.900;2022-08-07T20:49:17;5.40;;;2.70;;
35757;SDS011;21879;50.110;18.900;2022-08-07T21:00:11;4.80;;;3.30;;
35757;SDS011;21879;50.110;18.900;2022-08-07T21:10:44;5.50;;;3.60;;
35757;SDS011;21879;50.110;18.900;2022-08-07T21:21:17;6.00;;;4.70;;
35757;SDS011;21879;50.110;18.900;2022-08-07T21:31:56;5.60;;;3.70;;
35757;SDS011;21879;50.110;18.900;2022-08-07T21:42:53;4.70;;;3.20;;
35757;SDS011;21879;50.110;18.900;2022-08-07T21:53:30;5.50;;;2.70;;
35757;SDS011;21879;50.110;18.900;2022-08-07T22:04:11;2.40;;;1.60;;
35757;SDS011;21879;50.110;18.900;2022-08-07T22:14:44;8.10;;;3.10;;
35757;SDS011;21879;50.110;18.900;2022-08-07T22:25:26;5.80;;;1.80;;
35757;SDS011;21879;50.110;18.900;2022-08-07T22:48:19;2.40;;;1.40;;
35757;SDS011;21879;50.110;18.900;2022-08-07T23:10:19;1.50;;;1.10;;
35757;SDS011;21879;50.110;18.900;2022-08-07T23:21:07;2.80;;;1.40;;
35757;SDS011;21879;50.110;18.900;2022-08-07T23:31:59;2.00;;;1.40;;
35757;SDS011;21879;50.110;18.900;2022-08-07T23:42:56;1.50;;;1.20;;
35757;SDS011;21879;50.110;18.900;2022-08-07T23:53:42;1.60;;;1.10;;
